Etusivu
METAR-TAF:

METAR-TAF

Lentoasemat :

Brighton, Englanti

Leveyspiiri: 50-50N, Pituuspiiri: 000-17W, korkeus merenpinnasta: 2 m

Tämänhetkinen sää

Tämä raportti tehtiin 24 minuuttia sitten, kello 11.50 UTC
Tuuli 3 kn kaakosta
Lämpötila 7°C
Kosteus 100%
Ilmanpaine 1036 hPa
Näkyvyys: 1300 m
Pilvistä 200 ft:n korkeudessa
utua

METAR: EGKA 221150Z 13003KT 1300 BR OVC002 07/07 Q1036

Aika: 12:14 (12:14 UTC)

Sääennuste

Tämä raportti tehtiin 1 tunti ja 14 minuuttia sitten, kello 11.00 UTC
Ennuste voimassa 22. päivästä klo 12 UTC - 22. päivään klo 19 UTC
Tuuli 5 kn kaakosta
Näkyvyys: 3000 m
Hajanaisia pilviä 200 ft:n korkeudessa
utua
Todennäköisyys 30%
22. päivästä klo 12 UTC - 22. päivään klo 18 UTC
Näkyvyys: 0300 m
Pilvistä 100 ft:n korkeudessa
sumua

TAF: EGKA 221100Z 2212/2219 14005KT 3000 BR SCT002 PROB30 2212/2218 0300 FG OVC001

Säähavainnot ja -ennusteet yli 4000 lentoasemalta (METAR- ja TAF-raportit).

Käytössä olevat sääasemat on merkitty karttaan keltaisilla ja punaisilla pisteillä.

Aseta hiiri pisteen päälle nähdäksesi sääaseman nimen.

Klikkaa sitten nähdäksesi säähavainnot ja -ennusteet.

Kartan vaihtaminen: klikkaa mustalla rastilla varustettuja vihreitä pisteitä, niin voit zoomata sisään; viivalla varustettua vihreää pistettä, niin voit zoomata ulos tai vihreitä nuolia, niin pääset viereisille kartoille.


METAR-TAF: